sensor_id;sensor_type;location;lat;lon;timestamp;P1;durP1;ratioP1;P2;durP2;ratioP2
64186;SDS011;50491;39.484;-8.540;2022-12-29T00:01:10;36.42;;;20.35;;
64186;SDS011;50491;39.484;-8.540;2022-12-29T00:03:11;34.88;;;20.55;;
64186;SDS011;50491;39.484;-8.540;2022-12-29T00:05:11;38.88;;;22.27;;
64186;SDS011;50491;39.484;-8.540;2022-12-29T00:07:30;34.45;;;18.52;;
64186;SDS011;50491;39.484;-8.540;2022-12-29T00:09:31;31.92;;;19.45;;
64186;SDS011;50491;39.484;-8.540;2022-12-29T00:12:09;31.88;;;17.73;;
64186;SDS011;50491;39.484;-8.540;2022-12-29T00:14:28;33.88;;;19.33;;
64186;SDS011;50491;39.484;-8.540;2022-12-29T00:17:25;30.65;;;19.33;;
64186;SDS011;50491;39.484;-8.540;2022-12-29T00:19:44;38.22;;;20.25;;
64186;SDS011;50491;39.484;-8.540;2022-12-29T00:22:03;34.08;;;19.30;;
64186;SDS011;50491;39.484;-8.540;2022-12-29T00:27:44;34.92;;;19.48;;
64186;SDS011;50491;39.484;-8.540;2022-12-29T00:30:07;38.90;;;23.05;;
64186;SDS011;50491;39.484;-8.540;2022-12-29T00:32:28;36.13;;;20.88;;
64186;SDS011;50491;39.484;-8.540;2022-12-29T00:34:47;35.08;;;20.13;;
64186;SDS011;50491;39.484;-8.540;2022-12-29T00:37:06;40.42;;;21.75;;
64186;SDS011;50491;39.484;-8.540;2022-12-29T00:39:17;36.78;;;21.25;;
64186;SDS011;50491;39.484;-8.540;2022-12-29T00:41:37;37.38;;;20.33;;
64186;SDS011;50491;39.484;-8.540;2022-12-29T00:43:56;34.53;;;20.13;;
64186;SDS011;50491;39.484;-8.540;2022-12-29T00:46:05;37.63;;;22.15;;
64186;SDS011;50491;39.484;-8.540;2022-12-29T00:48:06;35.60;;;19.42;;
64186;SDS011;50491;39.484;-8.540;2022-12-29T00:50:07;34.55;;;19.65;;
64186;SDS011;50491;39.484;-8.540;2022-12-29T00:52:09;38.70;;;21.13;;
64186;SDS011;50491;39.484;-8.540;2022-12-29T00:54:31;33.33;;;18.77;;
64186;SDS011;50491;39.484;-8.540;2022-12-29T00:56:33;31.27;;;18.85;;
64186;SDS011;50491;39.484;-8.540;2022-12-29T00:58:34;35.47;;;20.55;;
64186;SDS011;50491;39.484;-8.540;2022-12-29T01:00:34;34.55;;;20.70;;
64186;SDS011;50491;39.484;-8.540;2022-12-29T01:02:35;37.53;;;20.35;;
64186;SDS011;50491;39.484;-8.540;2022-12-29T01:04:54;37.60;;;19.80;;
64186;SDS011;50491;39.484;-8.540;2022-12-29T01:06:55;34.72;;;19.80;;
64186;SDS011;50491;39.484;-8.540;2022-12-29T01:11:52;35.78;;;20.58;;
64186;SDS011;50491;39.484;-8.540;2022-12-29T01:14:18;34.85;;;19.27;;
64186;SDS011;50491;39.484;-8.540;2022-12-29T01:18:57;34.50;;;19.90;;
64186;SDS011;50491;39.484;-8.540;2022-12-29T01:20:58;34.70;;;18.75;;
64186;SDS011;50491;39.484;-8.540;2022-12-29T01:22:59;31.00;;;18.63;;
64186;SDS011;50491;39.484;-8.540;2022-12-29T01:27:38;34.92;;;19.50;;
64186;SDS011;50491;39.484;-8.540;2022-12-29T01:31:57;30.23;;;18.05;;
64186;SDS011;50491;39.484;-8.540;2022-12-29T01:33:58;32.45;;;18.92;;
64186;SDS011;50491;39.484;-8.540;2022-12-29T01:36:02;32.17;;;17.67;;
64186;SDS011;50491;39.484;-8.540;2022-12-29T01:38:07;31.67;;;19.13;;
64186;SDS011;50491;39.484;-8.540;2022-12-29T01:42:46;30.65;;;17.98;;
64186;SDS011;50491;39.484;-8.540;2022-12-29T01:45:23;32.55;;;19.45;;
64186;SDS011;50491;39.484;-8.540;2022-12-29T01:49:29;33.67;;;16.80;;
64186;SDS011;50491;39.484;-8.540;2022-12-29T01:51:30;32.25;;;19.45;;
64186;SDS011;50491;39.484;-8.540;2022-12-29T01:53:32;34.67;;;18.23;;
64186;SDS011;50491;39.484;-8.540;2022-12-29T01:55:39;29.30;;;17.30;;
64186;SDS011;50491;39.484;-8.540;2022-12-29T01:57:44;31.88;;;18.98;;
64186;SDS011;50491;39.484;-8.540;2022-12-29T02:01:55;32.17;;;17.20;;
64186;SDS011;50491;39.484;-8.540;2022-12-29T02:04:15;30.67;;;16.80;;
64186;SDS011;50491;39.484;-8.540;2022-12-29T02:06:21;33.75;;;17.27;;
64186;SDS011;50491;39.484;-8.540;2022-12-29T02:08:22;30.50;;;17.25;;
64186;SDS011;50491;39.484;-8.540;2022-12-29T02:10:26;27.23;;;15.70;;
64186;SDS011;50491;39.484;-8.540;2022-12-29T02:12:47;33.80;;;17.98;;
64186;SDS011;50491;39.484;-8.540;2022-12-29T02:14:48;32.03;;;18.90;;
64186;SDS011;50491;39.484;-8.540;2022-12-29T02:28:47;27.30;;;17.00;;
64186;SDS011;50491;39.484;-8.540;2022-12-29T02:45:33;40.63;;;19.65;;
64186;SDS011;50491;39.484;-8.540;2022-12-29T02:47:47;37.25;;;17.42;;
64186;SDS011;50491;39.484;-8.540;2022-12-29T02:50:19;39.25;;;18.42;;
64186;SDS011;50491;39.484;-8.540;2022-12-29T02:52:25;27.33;;;15.20;;
64186;SDS011;50491;39.484;-8.540;2022-12-29T02:54:53;30.63;;;14.98;;
64186;SDS011;50491;39.484;-8.540;2022-12-29T02:56:54;26.52;;;14.48;;
64186;SDS011;50491;39.484;-8.540;2022-12-29T02:58:55;25.13;;;14.55;;
64186;SDS011;50491;39.484;-8.540;2022-12-29T03:01:03;27.35;;;14.07;;
64186;SDS011;50491;39.484;-8.540;2022-12-29T03:04:01;23.52;;;14.50;;
64186;SDS011;50491;39.484;-8.540;2022-12-29T03:08:58;24.50;;;14.63;;
64186;SDS011;50491;39.484;-8.540;2022-12-29T03:11:13;24.80;;;14.30;;
64186;SDS011;50491;39.484;-8.540;2022-12-29T03:16:07;29.00;;;14.80;;
64186;SDS011;50491;39.484;-8.540;2022-12-29T03:18:34;23.38;;;14.13;;
64186;SDS011;50491;39.484;-8.540;2022-12-29T03:20:58;26.13;;;14.10;;
64186;SDS011;50491;39.484;-8.540;2022-12-29T03:23:05;25.90;;;16.38;;
64186;SDS011;50491;39.484;-8.540;2022-12-29T03:27:45;28.77;;;15.02;;
64186;SDS011;50491;39.484;-8.540;2022-12-29T03:29:49;31.13;;;15.30;;
64186;SDS011;50491;39.484;-8.540;2022-12-29T03:31:54;28.42;;;14.68;;
64186;SDS011;50491;39.484;-8.540;2022-12-29T03:33:55;33.75;;;15.68;;
64186;SDS011;50491;39.484;-8.540;2022-12-29T03:36:01;28.05;;;14.63;;
64186;SDS011;50491;39.484;-8.540;2022-12-29T03:40:13;27.55;;;14.95;;
64186;SDS011;50491;39.484;-8.540;2022-12-29T03:48:31;24.10;;;13.47;;
64186;SDS011;50491;39.484;-8.540;2022-12-29T03:50:33;38.33;;;14.60;;
64186;SDS011;50491;39.484;-8.540;2022-12-29T03:52:34;28.60;;;15.13;;
64186;SDS011;50491;39.484;-8.540;2022-12-29T03:54:34;28.35;;;14.38;;
64186;SDS011;50491;39.484;-8.540;2022-12-29T03:56:35;31.63;;;15.27;;
64186;SDS011;50491;39.484;-8.540;2022-12-29T03:58:37;27.85;;;14.10;;
64186;SDS011;50491;39.484;-8.540;2022-12-29T04:00:42;35.60;;;15.50;;
64186;SDS011;50491;39.484;-8.540;2022-12-29T04:03:20;52.65;;;18.83;;
64186;SDS011;50491;39.484;-8.540;2022-12-29T04:05:26;29.75;;;15.70;;
64186;SDS011;50491;39.484;-8.540;2022-12-29T04:07:46;32.03;;;15.82;;
64186;SDS011;50491;39.484;-8.540;2022-12-29T04:10:04;35.97;;;16.52;;
64186;SDS011;50491;39.484;-8.540;2022-12-29T04:12:08;45.15;;;16.88;;
64186;SDS011;50491;39.484;-8.540;2022-12-29T04:14:09;68.38;;;17.67;;
64186;SDS011;50491;39.484;-8.540;2022-12-29T04:16:10;43.33;;;15.80;;
64186;SDS011;50491;39.484;-8.540;2022-12-29T04:18:36;42.35;;;15.75;;
64186;SDS011;50491;39.484;-8.540;2022-12-29T04:20:54;44.83;;;17.08;;
64186;SDS011;50491;39.484;-8.540;2022-12-29T04:23:04;47.40;;;15.65;;
64186;SDS011;50491;39.484;-8.540;2022-12-29T04:25:06;51.30;;;16.30;;
64186;SDS011;50491;39.484;-8.540;2022-12-29T04:27:07;60.85;;;18.60;;
64186;SDS011;50491;39.484;-8.540;2022-12-29T04:29:27;47.10;;;18.48;;
64186;SDS011;50491;39.484;-8.540;2022-12-29T04:31:38;32.17;;;14.70;;
64186;SDS011;50491;39.484;-8.540;2022-12-29T04:33:39;28.73;;;16.15;;
64186;SDS011;50491;39.484;-8.540;2022-12-29T04:35:41;32.75;;;15.65;;
64186;SDS011;50491;39.484;-8.540;2022-12-29T04:37:42;32.83;;;16.60;;
64186;SDS011;50491;39.484;-8.540;2022-12-29T04:39:42;32.00;;;14.63;;
64186;SDS011;50491;39.484;-8.540;2022-12-29T04:41:43;28.73;;;14.77;;
64186;SDS011;50491;39.484;-8.540;2022-12-29T04:43:49;29.00;;;16.38;;
64186;SDS011;50491;39.484;-8.540;2022-12-29T04:46:09;24.70;;;14.05;;
64186;SDS011;50491;39.484;-8.540;2022-12-29T04:48:33;26.60;;;13.40;;
64186;SDS011;50491;39.484;-8.540;2022-12-29T04:51:12;26.38;;;13.13;;
64186;SDS011;50491;39.484;-8.540;2022-12-29T04:53:13;24.02;;;13.77;;
64186;SDS011;50491;39.484;-8.540;2022-12-29T04:55:16;24.63;;;12.82;;
64186;SDS011;50491;39.484;-8.540;2022-12-29T04:57:17;21.15;;;11.50;;
64186;SDS011;50491;39.484;-8.540;2022-12-29T04:59:23;25.50;;;13.07;;
64186;SDS011;50491;39.484;-8.540;2022-12-29T05:01:42;20.38;;;11.40;;
64186;SDS011;50491;39.484;-8.540;2022-12-29T05:04:07;20.70;;;11.70;;
64186;SDS011;50491;39.484;-8.540;2022-12-29T05:06:08;25.17;;;12.40;;
64186;SDS011;50491;39.484;-8.540;2022-12-29T05:08:09;25.25;;;11.45;;
64186;SDS011;50491;39.484;-8.540;2022-12-29T05:13:06;25.60;;;11.30;;
64186;SDS011;50491;39.484;-8.540;2022-12-29T05:15:25;18.40;;;10.43;;
64186;SDS011;50491;39.484;-8.540;2022-12-29T05:17:44;23.17;;;10.70;;
64186;SDS011;50491;39.484;-8.540;2022-12-29T05:22:11;24.00;;;10.90;;
64186;SDS011;50491;39.484;-8.540;2022-12-29T05:24:30;21.73;;;10.18;;
64186;SDS011;50491;39.484;-8.540;2022-12-29T05:26:49;20.35;;;10.90;;
64186;SDS011;50491;39.484;-8.540;2022-12-29T05:29:08;21.20;;;12.02;;
64186;SDS011;50491;39.484;-8.540;2022-12-29T05:31:27;17.95;;;11.02;;
64186;SDS011;50491;39.484;-8.540;2022-12-29T05:34:04;24.83;;;11.27;;
64186;SDS011;50491;39.484;-8.540;2022-12-29T05:36:23;20.60;;;11.38;;
64186;SDS011;50491;39.484;-8.540;2022-12-29T05:38:28;26.98;;;11.63;;
64186;SDS011;50491;39.484;-8.540;2022-12-29T05:46:34;24.63;;;10.35;;
64186;SDS011;50491;39.484;-8.540;2022-12-29T05:49:25;25.67;;;13.27;;
64186;SDS011;50491;39.484;-8.540;2022-12-29T05:51:32;22.48;;;12.30;;
64186;SDS011;50491;39.484;-8.540;2022-12-29T05:53:32;24.38;;;12.50;;
64186;SDS011;50491;39.484;-8.540;2022-12-29T05:55:34;24.92;;;12.70;;
64186;SDS011;50491;39.484;-8.540;2022-12-29T05:57:35;26.50;;;12.68;;
64186;SDS011;50491;39.484;-8.540;2022-12-29T05:59:44;19.10;;;10.75;;
64186;SDS011;50491;39.484;-8.540;2022-12-29T06:01:45;21.73;;;11.15;;
64186;SDS011;50491;39.484;-8.540;2022-12-29T06:03:46;22.10;;;11.07;;
64186;SDS011;50491;39.484;-8.540;2022-12-29T06:05:46;19.30;;;10.73;;
64186;SDS011;50491;39.484;-8.540;2022-12-29T06:08:05;18.83;;;10.25;;
64186;SDS011;50491;39.484;-8.540;2022-12-29T06:10:06;17.70;;;9.95;;
64186;SDS011;50491;39.484;-8.540;2022-12-29T06:12:15;20.77;;;8.77;;
64186;SDS011;50491;39.484;-8.540;2022-12-29T06:14:41;20.17;;;8.75;;
64186;SDS011;50491;39.484;-8.540;2022-12-29T06:17:06;12.90;;;6.38;;
64186;SDS011;50491;39.484;-8.540;2022-12-29T06:21:33;14.75;;;6.90;;
64186;SDS011;50491;39.484;-8.540;2022-12-29T06:23:35;13.98;;;5.93;;
64186;SDS011;50491;39.484;-8.540;2022-12-29T06:25:35;16.85;;;6.30;;
64186;SDS011;50491;39.484;-8.540;2022-12-29T06:27:55;12.32;;;6.07;;
64186;SDS011;50491;39.484;-8.540;2022-12-29T06:29:56;10.38;;;5.30;;
64186;SDS011;50491;39.484;-8.540;2022-12-29T06:31:57;12.10;;;5.30;;
64186;SDS011;50491;39.484;-8.540;2022-12-29T06:34:24;10.07;;;5.40;;
64186;SDS011;50491;39.484;-8.540;2022-12-29T06:36:25;12.07;;;5.68;;
64186;SDS011;50491;39.484;-8.540;2022-12-29T06:38:25;10.70;;;6.03;;
64186;SDS011;50491;39.484;-8.540;2022-12-29T06:40:26;10.45;;;4.43;;
64186;SDS011;50491;39.484;-8.540;2022-12-29T06:42:39;7.32;;;4.32;;
64186;SDS011;50491;39.484;-8.540;2022-12-29T06:44:59;8.10;;;3.95;;
64186;SDS011;50491;39.484;-8.540;2022-12-29T06:47:19;13.30;;;4.45;;
64186;SDS011;50491;39.484;-8.540;2022-12-29T06:49:38;11.23;;;4.72;;
64186;SDS011;50491;39.484;-8.540;2022-12-29T06:51:57;9.82;;;4.10;;
64186;SDS011;50491;39.484;-8.540;2022-12-29T06:53:59;12.05;;;4.65;;
64186;SDS011;50491;39.484;-8.540;2022-12-29T06:56:00;5.85;;;3.55;;
64186;SDS011;50491;39.484;-8.540;2022-12-29T06:58:01;7.63;;;4.18;;
64186;SDS011;50491;39.484;-8.540;2022-12-29T07:00:02;11.25;;;4.38;;
64186;SDS011;50491;39.484;-8.540;2022-12-29T07:02:05;11.45;;;4.07;;
64186;SDS011;50491;39.484;-8.540;2022-12-29T07:04:07;8.25;;;3.30;;
64186;SDS011;50491;39.484;-8.540;2022-12-29T07:06:26;6.75;;;3.25;;
64186;SDS011;50491;39.484;-8.540;2022-12-29T07:08:26;9.75;;;3.55;;
64186;SDS011;50491;39.484;-8.540;2022-12-29T07:20:31;6.32;;;3.25;;
64186;SDS011;50491;39.484;-8.540;2022-12-29T07:22:32;7.00;;;2.78;;
64186;SDS011;50491;39.484;-8.540;2022-12-29T07:26:52;3.83;;;2.85;;
64186;SDS011;50491;39.484;-8.540;2022-12-29T07:34:27;8.63;;;2.88;;
64186;SDS011;50491;39.484;-8.540;2022-12-29T07:36:27;9.43;;;3.35;;
64186;SDS011;50491;39.484;-8.540;2022-12-29T07:38:47;5.90;;;3.22;;
64186;SDS011;50491;39.484;-8.540;2022-12-29T07:40:47;7.32;;;3.13;;
64186;SDS011;50491;39.484;-8.540;2022-12-29T07:45:51;6.15;;;3.83;;
64186;SDS011;50491;39.484;-8.540;2022-12-29T07:47:53;8.05;;;3.38;;
64186;SDS011;50491;39.484;-8.540;2022-12-29T07:49:54;5.03;;;3.72;;
64186;SDS011;50491;39.484;-8.540;2022-12-29T07:51:55;7.40;;;3.42;;
64186;SDS011;50491;39.484;-8.540;2022-12-29T07:58:55;9.50;;;3.40;;
64186;SDS011;50491;39.484;-8.540;2022-12-29T08:00:56;6.43;;;3.15;;
64186;SDS011;50491;39.484;-8.540;2022-12-29T08:03:16;8.68;;;3.05;;
64186;SDS011;50491;39.484;-8.540;2022-12-29T08:05:16;7.75;;;3.22;;
64186;SDS011;50491;39.484;-8.540;2022-12-29T08:07:17;13.52;;;3.63;;
64186;SDS011;50491;39.484;-8.540;2022-12-29T08:16:52;7.88;;;3.60;;
64186;SDS011;50491;39.484;-8.540;2022-12-29T08:18:53;7.60;;;3.40;;
64186;SDS011;50491;39.484;-8.540;2022-12-29T08:21:12;9.60;;;3.63;;
64186;SDS011;50491;39.484;-8.540;2022-12-29T08:23:31;8.23;;;3.47;;
64186;SDS011;50491;39.484;-8.540;2022-12-29T08:25:56;7.65;;;3.67;;
64186;SDS011;50491;39.484;-8.540;2022-12-29T08:28:00;7.25;;;3.47;;
64186;SDS011;50491;39.484;-8.540;2022-12-29T08:30:01;8.43;;;4.15;;
64186;SDS011;50491;39.484;-8.540;2022-12-29T08:32:02;6.93;;;3.38;;
64186;SDS011;50491;39.484;-8.540;2022-12-29T08:34:02;12.27;;;4.10;;
64186;SDS011;50491;39.484;-8.540;2022-12-29T08:36:05;12.23;;;3.63;;
64186;SDS011;50491;39.484;-8.540;2022-12-29T08:38:06;10.00;;;4.13;;
64186;SDS011;50491;39.484;-8.540;2022-12-29T08:40:07;9.40;;;4.78;;
64186;SDS011;50491;39.484;-8.540;2022-12-29T08:42:33;9.23;;;3.70;;
64186;SDS011;50491;39.484;-8.540;2022-12-29T08:47:11;8.30;;;4.65;;
64186;SDS011;50491;39.484;-8.540;2022-12-29T08:49:12;8.57;;;4.22;;
64186;SDS011;50491;39.484;-8.540;2022-12-29T08:51:13;6.82;;;4.22;;
64186;SDS011;50491;39.484;-8.540;2022-12-29T08:53:32;8.27;;;3.63;;
64186;SDS011;50491;39.484;-8.540;2022-12-29T08:55:33;11.13;;;4.82;;
64186;SDS011;50491;39.484;-8.540;2022-12-29T08:57:33;10.18;;;4.55;;
64186;SDS011;50491;39.484;-8.540;2022-12-29T08:59:39;6.85;;;3.90;;
64186;SDS011;50491;39.484;-8.540;2022-12-29T09:01:40;6.28;;;4.05;;
64186;SDS011;50491;39.484;-8.540;2022-12-29T09:03:41;5.85;;;3.47;;
64186;SDS011;50491;39.484;-8.540;2022-12-29T09:05:41;6.32;;;3.97;;
64186;SDS011;50491;39.484;-8.540;2022-12-29T09:07:42;13.00;;;4.28;;
64186;SDS011;50491;39.484;-8.540;2022-12-29T09:09:42;6.15;;;3.45;;
64186;SDS011;50491;39.484;-8.540;2022-12-29T09:11:44;8.60;;;3.58;;
64186;SDS011;50491;39.484;-8.540;2022-12-29T09:13:45;6.50;;;4.20;;
64186;SDS011;50491;39.484;-8.540;2022-12-29T09:15:46;7.45;;;3.55;;
64186;SDS011;50491;39.484;-8.540;2022-12-29T09:17:47;13.75;;;3.85;;
64186;SDS011;50491;39.484;-8.540;2022-12-29T09:19:47;6.10;;;4.03;;
64186;SDS011;50491;39.484;-8.540;2022-12-29T09:21:48;5.10;;;3.97;;
64186;SDS011;50491;39.484;-8.540;2022-12-29T09:23:48;9.30;;;3.92;;
64186;SDS011;50491;39.484;-8.540;2022-12-29T09:25:49;8.27;;;3.35;;
64186;SDS011;50491;39.484;-8.540;2022-12-29T09:27:50;5.68;;;3.20;;
64186;SDS011;50491;39.484;-8.540;2022-12-29T09:29:53;6.97;;;3.33;;
64186;SDS011;50491;39.484;-8.540;2022-12-29T09:31:53;8.68;;;3.78;;
64186;SDS011;50491;39.484;-8.540;2022-12-29T09:33:54;8.82;;;3.65;;
64186;SDS011;50491;39.484;-8.540;2022-12-29T09:35:56;9.27;;;4.43;;
64186;SDS011;50491;39.484;-8.540;2022-12-29T09:37:58;7.72;;;4.93;;
64186;SDS011;50491;39.484;-8.540;2022-12-29T09:39:58;9.77;;;5.57;;
64186;SDS011;50491;39.484;-8.540;2022-12-29T09:44:49;8.15;;;3.65;;
64186;SDS011;50491;39.484;-8.540;2022-12-29T09:46:52;9.77;;;3.40;;
64186;SDS011;50491;39.484;-8.540;2022-12-29T09:48:58;8.95;;;3.33;;
64186;SDS011;50491;39.484;-8.540;2022-12-29T09:51:21;12.27;;;3.55;;
64186;SDS011;50491;39.484;-8.540;2022-12-29T09:53:27;5.13;;;2.35;;
64186;SDS011;50491;39.484;-8.540;2022-12-29T09:55:31;8.40;;;2.78;;
64186;SDS011;50491;39.484;-8.540;2022-12-29T09:59:50;4.70;;;3.38;;
64186;SDS011;50491;39.484;-8.540;2022-12-29T10:01:52;4.30;;;2.67;;
64186;SDS011;50491;39.484;-8.540;2022-12-29T10:03:57;6.18;;;3.10;;
64186;SDS011;50491;39.484;-8.540;2022-12-29T10:06:08;6.95;;;3.10;;
64186;SDS011;50491;39.484;-8.540;2022-12-29T10:10:56;3.85;;;2.60;;
64186;SDS011;50491;39.484;-8.540;2022-12-29T10:13:00;5.07;;;3.20;;
64186;SDS011;50491;39.484;-8.540;2022-12-29T10:17:48;4.28;;;2.97;;
64186;SDS011;50491;39.484;-8.540;2022-12-29T10:20:14;5.00;;;3.22;;
64186;SDS011;50491;39.484;-8.540;2022-12-29T10:24:33;6.82;;;2.53;;
64186;SDS011;50491;39.484;-8.540;2022-12-29T10:26:59;16.80;;;7.20;;
64186;SDS011;50491;39.484;-8.540;2022-12-29T10:29:04;12.90;;;4.47;;
64186;SDS011;50491;39.484;-8.540;2022-12-29T10:31:06;7.80;;;2.90;;
64186;SDS011;50491;39.484;-8.540;2022-12-29T10:33:36;7.38;;;3.22;;
64186;SDS011;50491;39.484;-8.540;2022-12-29T10:35:39;4.00;;;2.40;;
64186;SDS011;50491;39.484;-8.540;2022-12-29T10:38:11;9.93;;;3.90;;
64186;SDS011;50491;39.484;-8.540;2022-12-29T10:40:22;7.22;;;3.60;;
64186;SDS011;50491;39.484;-8.540;2022-12-29T10:42:27;6.55;;;2.53;;
64186;SDS011;50491;39.484;-8.540;2022-12-29T10:44:29;4.75;;;2.53;;
64186;SDS011;50491;39.484;-8.540;2022-12-29T10:46:54;7.85;;;2.22;;
64186;SDS011;50491;39.484;-8.540;2022-12-29T10:48:55;11.75;;;3.35;;
64186;SDS011;50491;39.484;-8.540;2022-12-29T10:50:56;9.15;;;3.47;;
64186;SDS011;50491;39.484;-8.540;2022-12-29T10:52:58;7.20;;;3.00;;
64186;SDS011;50491;39.484;-8.540;2022-12-29T10:55:02;6.80;;;2.72;;
64186;SDS011;50491;39.484;-8.540;2022-12-29T10:57:27;3.75;;;2.65;;
64186;SDS011;50491;39.484;-8.540;2022-12-29T10:59:29;8.30;;;2.80;;
64186;SDS011;50491;39.484;-8.540;2022-12-29T11:01:36;5.78;;;3.55;;
64186;SDS011;50491;39.484;-8.540;2022-12-29T11:03:41;11.38;;;2.97;;
64186;SDS011;50491;39.484;-8.540;2022-12-29T11:05:53;5.18;;;2.75;;
64186;SDS011;50491;39.484;-8.540;2022-12-29T11:07:59;7.35;;;2.60;;
64186;SDS011;50491;39.484;-8.540;2022-12-29T11:13:00;9.52;;;3.72;;
64186;SDS011;50491;39.484;-8.540;2022-12-29T11:19:47;7.07;;;2.40;;
64186;SDS011;50491;39.484;-8.540;2022-12-29T11:21:48;3.67;;;1.55;;
64186;SDS011;50491;39.484;-8.540;2022-12-29T11:26:33;3.33;;;1.80;;
64186;SDS011;50491;39.484;-8.540;2022-12-29T11:28:34;8.02;;;2.40;;
64186;SDS011;50491;39.484;-8.540;2022-12-29T11:30:34;9.38;;;3.17;;
64186;SDS011;50491;39.484;-8.540;2022-12-29T11:32:35;6.45;;;2.33;;
64186;SDS011;50491;39.484;-8.540;2022-12-29T11:34:36;9.30;;;2.30;;
64186;SDS011;50491;39.484;-8.540;2022-12-29T11:36:58;7.70;;;2.03;;
64186;SDS011;50491;39.484;-8.540;2022-12-29T11:39:03;7.38;;;2.58;;
64186;SDS011;50491;39.484;-8.540;2022-12-29T11:41:26;6.32;;;2.72;;
64186;SDS011;50491;39.484;-8.540;2022-12-29T11:45:55;8.48;;;2.90;;
64186;SDS011;50491;39.484;-8.540;2022-12-29T11:48:16;12.45;;;5.70;;
64186;SDS011;50491;39.484;-8.540;2022-12-29T11:50:37;6.85;;;2.67;;
64186;SDS011;50491;39.484;-8.540;2022-12-29T11:52:40;11.07;;;3.58;;
64186;SDS011;50491;39.484;-8.540;2022-12-29T11:54:41;10.05;;;4.03;;
64186;SDS011;50491;39.484;-8.540;2022-12-29T11:56:43;10.40;;;3.25;;
64186;SDS011;50491;39.484;-8.540;2022-12-29T11:58:43;9.88;;;3.03;;
64186;SDS011;50491;39.484;-8.540;2022-12-29T12:00:44;5.10;;;3.03;;
64186;SDS011;50491;39.484;-8.540;2022-12-29T12:03:15;11.77;;;2.97;;
64186;SDS011;50491;39.484;-8.540;2022-12-29T12:05:21;9.43;;;3.83;;
64186;SDS011;50491;39.484;-8.540;2022-12-29T12:07:32;9.30;;;2.45;;
64186;SDS011;50491;39.484;-8.540;2022-12-29T12:09:57;12.73;;;3.03;;
64186;SDS011;50491;39.484;-8.540;2022-12-29T12:11:59;6.93;;;2.95;;
64186;SDS011;50491;39.484;-8.540;2022-12-29T12:14:34;5.47;;;2.40;;
64186;SDS011;50491;39.484;-8.540;2022-12-29T12:17:04;5.63;;;2.25;;
64186;SDS011;50491;39.484;-8.540;2022-12-29T12:19:20;4.13;;;3.17;;
64186;SDS011;50491;39.484;-8.540;2022-12-29T12:21:53;5.10;;;1.98;;
64186;SDS011;50491;39.484;-8.540;2022-12-29T12:26:19;2.80;;;1.83;;
64186;SDS011;50491;39.484;-8.540;2022-12-29T12:28:25;3.63;;;1.85;;
64186;SDS011;50491;39.484;-8.540;2022-12-29T12:45:42;2.05;;;1.02;;
64186;SDS011;50491;39.484;-8.540;2022-12-29T12:53:03;4.57;;;1.63;;
64186;SDS011;50491;39.484;-8.540;2022-12-29T12:57:53;5.70;;;1.27;;
64186;SDS011;50491;39.484;-8.540;2022-12-29T13:02:37;3.92;;;1.70;;
64186;SDS011;50491;39.484;-8.540;2022-12-29T13:09:29;2.97;;;1.92;;
64186;SDS011;50491;39.484;-8.540;2022-12-29T13:15:30;5.85;;;2.05;;
64186;SDS011;50491;39.484;-8.540;2022-12-29T13:17:19;4.13;;;2.05;;
64186;SDS011;50491;39.484;-8.540;2022-12-29T13:26:21;3.97;;;1.15;;
64186;SDS011;50491;39.484;-8.540;2022-12-29T13:36:54;5.15;;;1.50;;
64186;SDS011;50491;39.484;-8.540;2022-12-29T13:39:02;6.88;;;1.50;;
64186;SDS011;50491;39.484;-8.540;2022-12-29T13:41:09;6.07;;;1.52;;
64186;SDS011;50491;39.484;-8.540;2022-12-29T13:43:12;3.78;;;1.35;;
64186;SDS011;50491;39.484;-8.540;2022-12-29T13:45:39;5.70;;;1.25;;
64186;SDS011;50491;39.484;-8.540;2022-12-29T13:50:35;6.13;;;1.85;;
64186;SDS011;50491;39.484;-8.540;2022-12-29T14:00:03;5.30;;;1.48;;
64186;SDS011;50491;39.484;-8.540;2022-12-29T14:04:31;7.82;;;1.73;;
64186;SDS011;50491;39.484;-8.540;2022-12-29T14:06:35;7.60;;;1.60;;
64186;SDS011;50491;39.484;-8.540;2022-12-29T14:09:06;7.50;;;1.23;;
64186;SDS011;50491;39.484;-8.540;2022-12-29T14:13:32;9.27;;;1.95;;
64186;SDS011;50491;39.484;-8.540;2022-12-29T14:15:39;8.70;;;1.70;;
64186;SDS011;50491;39.484;-8.540;2022-12-29T14:22:26;8.93;;;1.60;;
64186;SDS011;50491;39.484;-8.540;2022-12-29T14:26:35;4.43;;;1.30;;
64186;SDS011;50491;39.484;-8.540;2022-12-29T14:28:39;7.43;;;1.83;;
64186;SDS011;50491;39.484;-8.540;2022-12-29T14:33:01;5.38;;;1.48;;
64186;SDS011;50491;39.484;-8.540;2022-12-29T14:35:46;8.63;;;2.00;;
64186;SDS011;50491;39.484;-8.540;2022-12-29T14:40:25;8.48;;;2.05;;
64186;SDS011;50491;39.484;-8.540;2022-12-29T14:42:27;11.63;;;2.45;;
64186;SDS011;50491;39.484;-8.540;2022-12-29T14:44:30;11.15;;;1.80;;
64186;SDS011;50491;39.484;-8.540;2022-12-29T14:48:57;8.98;;;2.05;;
64186;SDS011;50491;39.484;-8.540;2022-12-29T14:51:01;17.08;;;2.58;;
64186;SDS011;50491;39.484;-8.540;2022-12-29T14:53:05;8.52;;;2.15;;
64186;SDS011;50491;39.484;-8.540;2022-12-29T14:57:33;10.75;;;1.95;;
64186;SDS011;50491;39.484;-8.540;2022-12-29T14:59:38;11.65;;;1.77;;
64186;SDS011;50491;39.484;-8.540;2022-12-29T15:01:43;7.32;;;1.90;;
64186;SDS011;50491;39.484;-8.540;2022-12-29T15:03:49;6.43;;;2.40;;
64186;SDS011;50491;39.484;-8.540;2022-12-29T15:06:06;12.10;;;2.63;;
64186;SDS011;50491;39.484;-8.540;2022-12-29T15:08:31;13.55;;;3.25;;
64186;SDS011;50491;39.484;-8.540;2022-12-29T15:11:03;8.07;;;2.22;;
64186;SDS011;50491;39.484;-8.540;2022-12-29T15:13:32;12.45;;;1.92;;
64186;SDS011;50491;39.484;-8.540;2022-12-29T15:15:37;10.57;;;2.22;;
64186;SDS011;50491;39.484;-8.540;2022-12-29T15:17:57;9.45;;;2.10;;
64186;SDS011;50491;39.484;-8.540;2022-12-29T15:20:29;13.02;;;2.45;;
64186;SDS011;50491;39.484;-8.540;2022-12-29T15:22:31;11.85;;;2.13;;
64186;SDS011;50491;39.484;-8.540;2022-12-29T15:24:32;5.88;;;2.20;;
64186;SDS011;50491;39.484;-8.540;2022-12-29T15:26:37;6.43;;;2.20;;
64186;SDS011;50491;39.484;-8.540;2022-12-29T15:28:43;16.33;;;2.53;;
64186;SDS011;50491;39.484;-8.540;2022-12-29T15:30:52;13.13;;;2.38;;
64186;SDS011;50491;39.484;-8.540;2022-12-29T15:33:18;5.95;;;1.77;;
64186;SDS011;50491;39.484;-8.540;2022-12-29T15:35:24;13.32;;;2.47;;
64186;SDS011;50491;39.484;-8.540;2022-12-29T15:37:31;6.07;;;2.28;;
64186;SDS011;50491;39.484;-8.540;2022-12-29T15:39:34;8.63;;;2.92;;
64186;SDS011;50491;39.484;-8.540;2022-12-29T15:44:21;9.98;;;1.95;;
64186;SDS011;50491;39.484;-8.540;2022-12-29T15:46:24;15.80;;;2.65;;
64186;SDS011;50491;39.484;-8.540;2022-12-29T15:48:25;20.02;;;2.78;;
64186;SDS011;50491;39.484;-8.540;2022-12-29T15:50:27;9.18;;;2.50;;
64186;SDS011;50491;39.484;-8.540;2022-12-29T15:52:34;8.23;;;2.58;;
64186;SDS011;50491;39.484;-8.540;2022-12-29T15:54:35;10.00;;;2.30;;
64186;SDS011;50491;39.484;-8.540;2022-12-29T15:56:36;12.68;;;2.58;;
64186;SDS011;50491;39.484;-8.540;2022-12-29T15:58:56;6.80;;;2.35;;
64186;SDS011;50491;39.484;-8.540;2022-12-29T16:01:27;11.27;;;2.47;;
64186;SDS011;50491;39.484;-8.540;2022-12-29T16:03:32;20.05;;;3.33;;
64186;SDS011;50491;39.484;-8.540;2022-12-29T16:10:33;9.00;;;2.35;;
64186;SDS011;50491;39.484;-8.540;2022-12-29T16:12:36;14.32;;;2.80;;
64186;SDS011;50491;39.484;-8.540;2022-12-29T16:14:42;15.35;;;2.30;;
64186;SDS011;50491;39.484;-8.540;2022-12-29T16:16:46;15.00;;;2.80;;
64186;SDS011;50491;39.484;-8.540;2022-12-29T16:19:13;17.70;;;2.80;;
64186;SDS011;50491;39.484;-8.540;2022-12-29T16:21:19;12.55;;;3.00;;
64186;SDS011;50491;39.484;-8.540;2022-12-29T16:23:27;15.70;;;2.63;;